sensor_id;sensor_type;location;lat;lon;timestamp;P1;durP1;ratioP1;P2;durP2;ratioP2
17662;SDS011;8950;56.892;15.090;2023-01-24T00:01:24;1.98;;;1.88;;
17662;SDS011;8950;56.892;15.090;2023-01-24T00:03:50;1.85;;;1.50;;
17662;SDS011;8950;56.892;15.090;2023-01-24T00:06:17;2.50;;;1.95;;
17662;SDS011;8950;56.892;15.090;2023-01-24T00:08:43;1.80;;;1.63;;
17662;SDS011;8950;56.892;15.090;2023-01-24T00:11:10;1.67;;;1.58;;
17662;SDS011;8950;56.892;15.090;2023-01-24T00:13:37;1.50;;;1.40;;
17662;SDS011;8950;56.892;15.090;2023-01-24T00:16:06;1.70;;;1.60;;
17662;SDS011;8950;56.892;15.090;2023-01-24T00:18:33;1.70;;;1.60;;
17662;SDS011;8950;56.892;15.090;2023-01-24T00:21:00;1.95;;;1.85;;
17662;SDS011;8950;56.892;15.090;2023-01-24T00:23:26;1.55;;;1.45;;
17662;SDS011;8950;56.892;15.090;2023-01-24T00:25:53;1.60;;;1.50;;
17662;SDS011;8950;56.892;15.090;2023-01-24T00:28:19;1.50;;;1.40;;
17662;SDS011;8950;56.892;15.090;2023-01-24T00:30:45;1.60;;;1.50;;
17662;SDS011;8950;56.892;15.090;2023-01-24T00:33:13;1.73;;;1.63;;
17662;SDS011;8950;56.892;15.090;2023-01-24T00:35:39;1.60;;;1.50;;
17662;SDS011;8950;56.892;15.090;2023-01-24T00:38:06;1.50;;;1.38;;
17662;SDS011;8950;56.892;15.090;2023-01-24T00:40:32;1.85;;;1.50;;
17662;SDS011;8950;56.892;15.090;2023-01-24T00:42:58;1.65;;;1.55;;
17662;SDS011;8950;56.892;15.090;2023-01-24T00:45:25;1.80;;;1.70;;
17662;SDS011;8950;56.892;15.090;2023-01-24T00:47:51;1.67;;;1.58;;
17662;SDS011;8950;56.892;15.090;2023-01-24T00:50:19;1.60;;;1.50;;
17662;SDS011;8950;56.892;15.090;2023-01-24T00:52:45;1.60;;;1.50;;
17662;SDS011;8950;56.892;15.090;2023-01-24T00:55:12;1.60;;;1.50;;
17662;SDS011;8950;56.892;15.090;2023-01-24T00:57:38;1.60;;;1.50;;
17662;SDS011;8950;56.892;15.090;2023-01-24T01:00:05;2.03;;;1.80;;
17662;SDS011;8950;56.892;15.090;2023-01-24T01:02:33;1.60;;;1.50;;
17662;SDS011;8950;56.892;15.090;2023-01-24T01:05:00;2.08;;;1.88;;
17662;SDS011;8950;56.892;15.090;2023-01-24T01:07:27;1.75;;;1.50;;
17662;SDS011;8950;56.892;15.090;2023-01-24T01:09:54;1.77;;;1.42;;
17662;SDS011;8950;56.892;15.090;2023-01-24T01:12:20;2.63;;;1.63;;
17662;SDS011;8950;56.892;15.090;2023-01-24T01:14:46;1.75;;;1.60;;
17662;SDS011;8950;56.892;15.090;2023-01-24T01:17:13;1.90;;;1.70;;
17662;SDS011;8950;56.892;15.090;2023-01-24T01:19:39;1.48;;;1.38;;
17662;SDS011;8950;56.892;15.090;2023-01-24T01:22:05;1.63;;;1.50;;
17662;SDS011;8950;56.892;15.090;2023-01-24T01:24:33;1.65;;;1.55;;
17662;SDS011;8950;56.892;15.090;2023-01-24T01:27:00;2.38;;;1.50;;
17662;SDS011;8950;56.892;15.090;2023-01-24T01:29:27;1.55;;;1.45;;
17662;SDS011;8950;56.892;15.090;2023-01-24T01:31:53;1.45;;;1.35;;
17662;SDS011;8950;56.892;15.090;2023-01-24T01:34:20;1.83;;;1.60;;
17662;SDS011;8950;56.892;15.090;2023-01-24T01:36:46;1.40;;;1.30;;
17662;SDS011;8950;56.892;15.090;2023-01-24T01:39:12;1.52;;;1.42;;
17662;SDS011;8950;56.892;15.090;2023-01-24T01:41:40;1.42;;;1.33;;
17662;SDS011;8950;56.892;15.090;2023-01-24T01:47:15;1.40;;;1.30;;
17662;SDS011;8950;56.892;15.090;2023-01-24T01:49:42;1.40;;;1.30;;
17662;SDS011;8950;56.892;15.090;2023-01-24T01:52:10;1.70;;;1.60;;
17662;SDS011;8950;56.892;15.090;2023-01-24T01:54:38;1.67;;;1.58;;
17662;SDS011;8950;56.892;15.090;2023-01-24T01:57:07;1.40;;;1.30;;
17662;SDS011;8950;56.892;15.090;2023-01-24T01:59:35;1.52;;;1.42;;
17662;SDS011;8950;56.892;15.090;2023-01-24T02:02:02;1.42;;;1.35;;
17662;SDS011;8950;56.892;15.090;2023-01-24T02:04:31;2.30;;;1.60;;
17662;SDS011;8950;56.892;15.090;2023-01-24T02:06:59;1.85;;;1.60;;
17662;SDS011;8950;56.892;15.090;2023-01-24T02:09:28;1.60;;;1.50;;
17662;SDS011;8950;56.892;15.090;2023-01-24T02:11:56;1.60;;;1.50;;
17662;SDS011;8950;56.892;15.090;2023-01-24T02:14:26;1.60;;;1.50;;
17662;SDS011;8950;56.892;15.090;2023-01-24T02:17:10;1.88;;;1.40;;
17662;SDS011;8950;56.892;15.090;2023-01-24T02:19:41;1.63;;;1.52;;
17662;SDS011;8950;56.892;15.090;2023-01-24T02:22:14;1.63;;;1.52;;
17662;SDS011;8950;56.892;15.090;2023-01-24T02:24:43;1.48;;;1.27;;
17662;SDS011;8950;56.892;15.090;2023-01-24T02:27:13;1.65;;;1.40;;
17662;SDS011;8950;56.892;15.090;2023-01-24T02:29:39;1.60;;;1.50;;
17662;SDS011;8950;56.892;15.090;2023-01-24T02:32:06;1.38;;;1.27;;
17662;SDS011;8950;56.892;15.090;2023-01-24T02:34:33;1.50;;;1.40;;
17662;SDS011;8950;56.892;15.090;2023-01-24T02:37:00;1.50;;;1.40;;
17662;SDS011;8950;56.892;15.090;2023-01-24T02:39:28;1.50;;;1.40;;
17662;SDS011;8950;56.892;15.090;2023-01-24T02:41:55;1.38;;;1.27;;
17662;SDS011;8950;56.892;15.090;2023-01-24T02:44:28;1.50;;;1.40;;
17662;SDS011;8950;56.892;15.090;2023-01-24T02:46:55;1.40;;;1.30;;
17662;SDS011;8950;56.892;15.090;2023-01-24T02:49:21;1.45;;;1.35;;
17662;SDS011;8950;56.892;15.090;2023-01-24T02:51:47;1.70;;;1.60;;
17662;SDS011;8950;56.892;15.090;2023-01-24T02:54:31;1.45;;;1.30;;
17662;SDS011;8950;56.892;15.090;2023-01-24T02:56:58;1.60;;;1.50;;
17662;SDS011;8950;56.892;15.090;2023-01-24T02:59:43;1.40;;;1.30;;
17662;SDS011;8950;56.892;15.090;2023-01-24T03:02:10;1.40;;;1.30;;
17662;SDS011;8950;56.892;15.090;2023-01-24T03:04:36;1.60;;;1.50;;
17662;SDS011;8950;56.892;15.090;2023-01-24T03:07:03;1.38;;;1.27;;
17662;SDS011;8950;56.892;15.090;2023-01-24T03:09:29;1.70;;;1.60;;
17662;SDS011;8950;56.892;15.090;2023-01-24T03:12:09;1.50;;;1.40;;
17662;SDS011;8950;56.892;15.090;2023-01-24T03:14:54;1.40;;;1.30;;
17662;SDS011;8950;56.892;15.090;2023-01-24T03:17:38;1.30;;;1.20;;
17662;SDS011;8950;56.892;15.090;2023-01-24T03:20:22;1.40;;;1.30;;
17662;SDS011;8950;56.892;15.090;2023-01-24T03:23:07;1.40;;;1.30;;
17662;SDS011;8950;56.892;15.090;2023-01-24T03:25:52;1.45;;;1.35;;
17662;SDS011;8950;56.892;15.090;2023-01-24T03:28:36;1.42;;;1.33;;
17662;SDS011;8950;56.892;15.090;2023-01-24T03:31:22;1.50;;;1.40;;
17662;SDS011;8950;56.892;15.090;2023-01-24T03:34:06;1.60;;;1.50;;
17662;SDS011;8950;56.892;15.090;2023-01-24T03:36:50;1.35;;;1.30;;
17662;SDS011;8950;56.892;15.090;2023-01-24T03:39:16;1.40;;;1.30;;
17662;SDS011;8950;56.892;15.090;2023-01-24T03:42:00;1.50;;;1.40;;
17662;SDS011;8950;56.892;15.090;2023-01-24T03:44:27;1.35;;;1.25;;
17662;SDS011;8950;56.892;15.090;2023-01-24T03:46:54;1.30;;;1.20;;
17662;SDS011;8950;56.892;15.090;2023-01-24T03:49:21;1.40;;;1.30;;
17662;SDS011;8950;56.892;15.090;2023-01-24T03:52:05;1.52;;;1.42;;
17662;SDS011;8950;56.892;15.090;2023-01-24T03:54:48;1.75;;;1.40;;
17662;SDS011;8950;56.892;15.090;2023-01-24T03:57:15;1.33;;;1.23;;
17662;SDS011;8950;56.892;15.090;2023-01-24T03:59:42;1.70;;;1.60;;
17662;SDS011;8950;56.892;15.090;2023-01-24T04:02:10;1.55;;;1.45;;
17662;SDS011;8950;56.892;15.090;2023-01-24T04:04:36;1.60;;;1.50;;
17662;SDS011;8950;56.892;15.090;2023-01-24T04:07:21;1.40;;;1.30;;
17662;SDS011;8950;56.892;15.090;2023-01-24T04:09:47;1.50;;;1.40;;
17662;SDS011;8950;56.892;15.090;2023-01-24T04:12:13;1.55;;;1.42;;
17662;SDS011;8950;56.892;15.090;2023-01-24T04:14:40;1.50;;;1.40;;
17662;SDS011;8950;56.892;15.090;2023-01-24T04:17:08;1.63;;;1.52;;
17662;SDS011;8950;56.892;15.090;2023-01-24T04:19:35;1.48;;;1.38;;
17662;SDS011;8950;56.892;15.090;2023-01-24T04:22:02;1.27;;;1.25;;
17662;SDS011;8950;56.892;15.090;2023-01-24T04:24:28;1.50;;;1.40;;
17662;SDS011;8950;56.892;15.090;2023-01-24T04:26:55;1.50;;;1.40;;
17662;SDS011;8950;56.892;15.090;2023-01-24T04:29:21;1.60;;;1.50;;
17662;SDS011;8950;56.892;15.090;2023-01-24T04:31:47;1.45;;;1.35;;
17662;SDS011;8950;56.892;15.090;2023-01-24T04:34:14;1.70;;;1.60;;
17662;SDS011;8950;56.892;15.090;2023-01-24T04:36:41;1.58;;;1.48;;
17662;SDS011;8950;56.892;15.090;2023-01-24T04:39:08;1.42;;;1.33;;
17662;SDS011;8950;56.892;15.090;2023-01-24T04:41:34;1.50;;;1.40;;
17662;SDS011;8950;56.892;15.090;2023-01-24T04:44:01;1.50;;;1.40;;
17662;SDS011;8950;56.892;15.090;2023-01-24T04:46:27;1.60;;;1.50;;
17662;SDS011;8950;56.892;15.090;2023-01-24T04:48:53;1.73;;;1.45;;
17662;SDS011;8950;56.892;15.090;2023-01-24T04:51:20;2.00;;;1.50;;
17662;SDS011;8950;56.892;15.090;2023-01-24T04:53:48;1.20;;;1.20;;
17662;SDS011;8950;56.892;15.090;2023-01-24T04:56:15;1.65;;;1.55;;
17662;SDS011;8950;56.892;15.090;2023-01-24T04:58:41;2.35;;;1.58;;
17662;SDS011;8950;56.892;15.090;2023-01-24T05:01:07;1.45;;;1.35;;
17662;SDS011;8950;56.892;15.090;2023-01-24T05:03:34;1.63;;;1.52;;
17662;SDS011;8950;56.892;15.090;2023-01-24T05:06:00;1.50;;;1.40;;
17662;SDS011;8950;56.892;15.090;2023-01-24T05:08:27;1.30;;;1.30;;
17662;SDS011;8950;56.892;15.090;2023-01-24T05:10:54;1.50;;;1.40;;
17662;SDS011;8950;56.892;15.090;2023-01-24T05:13:21;1.80;;;1.70;;
17662;SDS011;8950;56.892;15.090;2023-01-24T05:15:47;1.83;;;1.73;;
17662;SDS011;8950;56.892;15.090;2023-01-24T05:18:14;1.60;;;1.50;;
17662;SDS011;8950;56.892;15.090;2023-01-24T05:20:40;1.55;;;1.45;;
17662;SDS011;8950;56.892;15.090;2023-01-24T05:23:07;1.40;;;1.30;;
17662;SDS011;8950;56.892;15.090;2023-01-24T05:25:33;1.50;;;1.40;;
17662;SDS011;8950;56.892;15.090;2023-01-24T05:28:01;1.60;;;1.50;;
17662;SDS011;8950;56.892;15.090;2023-01-24T05:30:27;1.50;;;1.40;;
17662;SDS011;8950;56.892;15.090;2023-01-24T05:32:55;1.50;;;1.40;;
17662;SDS011;8950;56.892;15.090;2023-01-24T05:35:21;1.60;;;1.50;;
17662;SDS011;8950;56.892;15.090;2023-01-24T05:37:47;1.73;;;1.60;;
17662;SDS011;8950;56.892;15.090;2023-01-24T05:40:14;1.60;;;1.50;;
17662;SDS011;8950;56.892;15.090;2023-01-24T05:42:40;1.50;;;1.40;;
17662;SDS011;8950;56.892;15.090;2023-01-24T05:45:09;1.60;;;1.50;;
17662;SDS011;8950;56.892;15.090;2023-01-24T05:47:36;1.60;;;1.50;;
17662;SDS011;8950;56.892;15.090;2023-01-24T05:50:02;1.70;;;1.60;;
17662;SDS011;8950;56.892;15.090;2023-01-24T05:52:28;1.98;;;1.88;;
17662;SDS011;8950;56.892;15.090;2023-01-24T05:54:55;2.00;;;1.80;;
17662;SDS011;8950;56.892;15.090;2023-01-24T05:57:21;1.80;;;1.70;;
17662;SDS011;8950;56.892;15.090;2023-01-24T05:59:48;1.80;;;1.70;;
17662;SDS011;8950;56.892;15.090;2023-01-24T06:02:16;2.42;;;1.48;;
17662;SDS011;8950;56.892;15.090;2023-01-24T06:04:43;1.55;;;1.45;;
17662;SDS011;8950;56.892;15.090;2023-01-24T06:07:10;1.80;;;1.70;;
17662;SDS011;8950;56.892;15.090;2023-01-24T06:09:36;1.30;;;1.30;;
17662;SDS011;8950;56.892;15.090;2023-01-24T06:12:02;1.60;;;1.50;;
17662;SDS011;8950;56.892;15.090;2023-01-24T06:14:29;1.60;;;1.50;;
17662;SDS011;8950;56.892;15.090;2023-01-24T06:16:55;1.48;;;1.38;;
17662;SDS011;8950;56.892;15.090;2023-01-24T06:19:23;2.60;;;1.63;;
17662;SDS011;8950;56.892;15.090;2023-01-24T06:21:52;2.15;;;1.50;;
17662;SDS011;8950;56.892;15.090;2023-01-24T06:24:20;1.60;;;1.50;;
17662;SDS011;8950;56.892;15.090;2023-01-24T06:26:48;1.63;;;1.52;;
17662;SDS011;8950;56.892;15.090;2023-01-24T06:29:15;1.90;;;1.75;;
17662;SDS011;8950;56.892;15.090;2023-01-24T06:31:44;1.60;;;1.50;;
17662;SDS011;8950;56.892;15.090;2023-01-24T06:34:16;2.20;;;1.60;;
17662;SDS011;8950;56.892;15.090;2023-01-24T06:36:50;2.00;;;1.80;;
17662;SDS011;8950;56.892;15.090;2023-01-24T06:39:20;1.70;;;1.50;;
17662;SDS011;8950;56.892;15.090;2023-01-24T06:41:47;1.77;;;1.67;;
17662;SDS011;8950;56.892;15.090;2023-01-24T06:44:14;2.30;;;1.77;;
17662;SDS011;8950;56.892;15.090;2023-01-24T06:46:40;1.70;;;1.60;;
17662;SDS011;8950;56.892;15.090;2023-01-24T06:49:08;1.70;;;1.60;;
17662;SDS011;8950;56.892;15.090;2023-01-24T06:51:35;2.00;;;1.80;;
17662;SDS011;8950;56.892;15.090;2023-01-24T06:54:03;1.80;;;1.70;;
17662;SDS011;8950;56.892;15.090;2023-01-24T06:56:30;1.60;;;1.50;;
17662;SDS011;8950;56.892;15.090;2023-01-24T06:58:57;1.63;;;1.52;;
17662;SDS011;8950;56.892;15.090;2023-01-24T07:01:23;1.83;;;1.73;;
17662;SDS011;8950;56.892;15.090;2023-01-24T07:03:50;1.75;;;1.65;;
17662;SDS011;8950;56.892;15.090;2023-01-24T07:06:16;1.55;;;1.45;;
17662;SDS011;8950;56.892;15.090;2023-01-24T07:08:42;1.92;;;1.80;;
17662;SDS011;8950;56.892;15.090;2023-01-24T07:11:10;1.85;;;1.75;;
17662;SDS011;8950;56.892;15.090;2023-01-24T07:13:37;1.77;;;1.67;;
17662;SDS011;8950;56.892;15.090;2023-01-24T07:16:03;1.70;;;1.60;;
17662;SDS011;8950;56.892;15.090;2023-01-24T07:18:30;1.63;;;1.52;;
17662;SDS011;8950;56.892;15.090;2023-01-24T07:20:57;1.73;;;1.63;;
17662;SDS011;8950;56.892;15.090;2023-01-24T07:23:24;1.60;;;1.50;;
17662;SDS011;8950;56.892;15.090;2023-01-24T07:25:53;1.67;;;1.58;;
17662;SDS011;8950;56.892;15.090;2023-01-24T07:28:21;1.90;;;1.80;;
17662;SDS011;8950;56.892;15.090;2023-01-24T07:30:48;1.70;;;1.60;;
17662;SDS011;8950;56.892;15.090;2023-01-24T07:33:15;2.33;;;2.00;;
17662;SDS011;8950;56.892;15.090;2023-01-24T07:35:41;2.65;;;1.83;;
17662;SDS011;8950;56.892;15.090;2023-01-24T07:38:08;2.00;;;1.80;;
17662;SDS011;8950;56.892;15.090;2023-01-24T07:40:35;1.83;;;1.67;;
17662;SDS011;8950;56.892;15.090;2023-01-24T07:43:01;1.83;;;1.73;;
17662;SDS011;8950;56.892;15.090;2023-01-24T07:45:29;1.80;;;1.70;;
17662;SDS011;8950;56.892;15.090;2023-01-24T07:47:56;2.15;;;1.95;;
17662;SDS011;8950;56.892;15.090;2023-01-24T07:50:22;1.80;;;1.70;;
17662;SDS011;8950;56.892;15.090;2023-01-24T07:52:50;2.30;;;1.90;;
17662;SDS011;8950;56.892;15.090;2023-01-24T07:55:17;3.10;;;2.20;;
17662;SDS011;8950;56.892;15.090;2023-01-24T07:57:43;2.00;;;1.90;;
17662;SDS011;8950;56.892;15.090;2023-01-24T08:00:10;2.20;;;1.83;;
17662;SDS011;8950;56.892;15.090;2023-01-24T08:02:38;1.80;;;1.70;;
17662;SDS011;8950;56.892;15.090;2023-01-24T08:05:05;2.03;;;1.92;;
17662;SDS011;8950;56.892;15.090;2023-01-24T08:07:32;2.00;;;1.90;;
17662;SDS011;8950;56.892;15.090;2023-01-24T08:09:58;2.25;;;2.13;;
17662;SDS011;8950;56.892;15.090;2023-01-24T08:12:24;1.90;;;1.80;;
17662;SDS011;8950;56.892;15.090;2023-01-24T08:14:51;2.10;;;1.90;;
17662;SDS011;8950;56.892;15.090;2023-01-24T08:17:17;2.20;;;2.00;;
17662;SDS011;8950;56.892;15.090;2023-01-24T08:19:45;2.03;;;1.75;;
17662;SDS011;8950;56.892;15.090;2023-01-24T08:22:12;2.13;;;1.95;;
17662;SDS011;8950;56.892;15.090;2023-01-24T08:24:38;2.35;;;2.10;;
17662;SDS011;8950;56.892;15.090;2023-01-24T08:27:04;2.65;;;1.85;;
17662;SDS011;8950;56.892;15.090;2023-01-24T08:29:31;2.60;;;2.40;;
17662;SDS011;8950;56.892;15.090;2023-01-24T08:31:58;2.47;;;2.10;;
17662;SDS011;8950;56.892;15.090;2023-01-24T08:34:24;1.92;;;1.83;;
17662;SDS011;8950;56.892;15.090;2023-01-24T08:36:52;2.30;;;2.10;;
17662;SDS011;8950;56.892;15.090;2023-01-24T08:39:18;2.20;;;2.00;;
17662;SDS011;8950;56.892;15.090;2023-01-24T08:41:45;2.20;;;2.00;;
17662;SDS011;8950;56.892;15.090;2023-01-24T08:44:11;2.42;;;2.22;;
17662;SDS011;8950;56.892;15.090;2023-01-24T08:46:38;2.30;;;2.15;;
17662;SDS011;8950;56.892;15.090;2023-01-24T08:49:05;2.83;;;2.20;;
17662;SDS011;8950;56.892;15.090;2023-01-24T08:51:31;2.40;;;2.20;;
17662;SDS011;8950;56.892;15.090;2023-01-24T08:54:00;2.30;;;2.10;;
17662;SDS011;8950;56.892;15.090;2023-01-24T08:56:27;2.20;;;2.00;;
17662;SDS011;8950;56.892;15.090;2023-01-24T08:58:53;2.22;;;2.03;;
17662;SDS011;8950;56.892;15.090;2023-01-24T09:01:20;2.45;;;2.10;;
17662;SDS011;8950;56.892;15.090;2023-01-24T09:03:46;2.63;;;2.42;;
17662;SDS011;8950;56.892;15.090;2023-01-24T09:06:14;3.13;;;2.13;;
17662;SDS011;8950;56.892;15.090;2023-01-24T09:08:40;2.15;;;2.05;;
17662;SDS011;8950;56.892;15.090;2023-01-24T09:11:08;2.42;;;2.22;;
17662;SDS011;8950;56.892;15.090;2023-01-24T09:13:34;2.20;;;2.10;;
17662;SDS011;8950;56.892;15.090;2023-01-24T09:16:01;2.33;;;2.13;;
17662;SDS011;8950;56.892;15.090;2023-01-24T09:18:27;2.60;;;2.10;;
17662;SDS011;8950;56.892;15.090;2023-01-24T09:20:53;2.92;;;2.30;;
17662;SDS011;8950;56.892;15.090;2023-01-24T09:23:20;2.60;;;2.40;;
17662;SDS011;8950;56.892;15.090;2023-01-24T09:25:50;2.58;;;2.38;;
17662;SDS011;8950;56.892;15.090;2023-01-24T09:28:18;2.20;;;2.00;;
17662;SDS011;8950;56.892;15.090;2023-01-24T09:30:45;2.38;;;2.17;;
17662;SDS011;8950;56.892;15.090;2023-01-24T09:33:12;2.28;;;2.10;;
17662;SDS011;8950;56.892;15.090;2023-01-24T09:35:39;2.40;;;2.20;;
17662;SDS011;8950;56.892;15.090;2023-01-24T09:38:05;3.25;;;2.28;;
17662;SDS011;8950;56.892;15.090;2023-01-24T09:40:34;2.50;;;2.30;;
17662;SDS011;8950;56.892;15.090;2023-01-24T09:43:06;2.47;;;2.28;;
17662;SDS011;8950;56.892;15.090;2023-01-24T09:45:40;2.30;;;2.20;;
17662;SDS011;8950;56.892;15.090;2023-01-24T09:48:11;2.42;;;2.22;;
17662;SDS011;8950;56.892;15.090;2023-01-24T09:50:38;2.45;;;2.25;;
17662;SDS011;8950;56.892;15.090;2023-01-24T09:53:08;2.55;;;2.35;;
17662;SDS011;8950;56.892;15.090;2023-01-24T09:55:40;2.60;;;2.40;;
17662;SDS011;8950;56.892;15.090;2023-01-24T09:58:12;2.58;;;2.33;;
17662;SDS011;8950;56.892;15.090;2023-01-24T10:00:45;3.53;;;2.55;;
17662;SDS011;8950;56.892;15.090;2023-01-24T10:03:12;2.50;;;2.30;;
17662;SDS011;8950;56.892;15.090;2023-01-24T10:05:40;2.35;;;2.17;;
17662;SDS011;8950;56.892;15.090;2023-01-24T10:08:11;2.70;;;2.50;;
17662;SDS011;8950;56.892;15.090;2023-01-24T10:10:44;2.78;;;2.58;;
17662;SDS011;8950;56.892;15.090;2023-01-24T10:13:17;2.85;;;2.65;;
17662;SDS011;8950;56.892;15.090;2023-01-24T10:15:52;2.88;;;2.63;;
17662;SDS011;8950;56.892;15.090;2023-01-24T10:18:23;3.42;;;2.80;;
17662;SDS011;8950;56.892;15.090;2023-01-24T10:21:07;2.70;;;2.50;;
17662;SDS011;8950;56.892;15.090;2023-01-24T10:23:35;3.83;;;2.70;;
17662;SDS011;8950;56.892;15.090;2023-01-24T10:26:05;2.30;;;2.10;;
17662;SDS011;8950;56.892;15.090;2023-01-24T10:28:38;2.90;;;2.63;;
17662;SDS011;8950;56.892;15.090;2023-01-24T10:31:08;2.47;;;2.28;;
17662;SDS011;8950;56.892;15.090;2023-01-24T10:33:39;2.30;;;2.10;;
17662;SDS011;8950;56.892;15.090;2023-01-24T10:36:08;2.60;;;2.40;;
17662;SDS011;8950;56.892;15.090;2023-01-24T10:38:37;2.53;;;2.30;;
17662;SDS011;8950;56.892;15.090;2023-01-24T10:41:13;2.63;;;2.42;;
17662;SDS011;8950;56.892;15.090;2023-01-24T10:43:40;3.05;;;2.70;;
17662;SDS011;8950;56.892;15.090;2023-01-24T10:46:13;2.72;;;2.53;;
17662;SDS011;8950;56.892;15.090;2023-01-24T10:48:43;2.55;;;2.40;;
17662;SDS011;8950;56.892;15.090;2023-01-24T10:51:12;3.33;;;2.58;;
17662;SDS011;8950;56.892;15.090;2023-01-24T10:53:39;3.00;;;2.80;;
17662;SDS011;8950;56.892;15.090;2023-01-24T10:56:06;2.70;;;2.50;;
17662;SDS011;8950;56.892;15.090;2023-01-24T10:58:32;3.42;;;2.60;;
17662;SDS011;8950;56.892;15.090;2023-01-24T11:01:04;2.80;;;2.60;;
17662;SDS011;8950;56.892;15.090;2023-01-24T11:03:32;2.45;;;2.25;;
17662;SDS011;8950;56.892;15.090;2023-01-24T11:06:00;2.75;;;2.55;;
17662;SDS011;8950;56.892;15.090;2023-01-24T11:08:31;2.63;;;2.42;;
17662;SDS011;8950;56.892;15.090;2023-01-24T11:10:58;2.55;;;2.35;;
17662;SDS011;8950;56.892;15.090;2023-01-24T11:13:30;2.40;;;2.20;;
17662;SDS011;8950;56.892;15.090;2023-01-24T11:15:59;2.28;;;2.08;;
17662;SDS011;8950;56.892;15.090;2023-01-24T11:18:28;2.88;;;2.67;;
17662;SDS011;8950;56.892;15.090;2023-01-24T11:21:07;2.70;;;2.50;;
17662;SDS011;8950;56.892;15.090;2023-01-24T11:23:33;2.60;;;2.40;;
17662;SDS011;8950;56.892;15.090;2023-01-24T11:26:01;2.80;;;2.55;;
17662;SDS011;8950;56.892;15.090;2023-01-24T11:28:28;3.03;;;2.70;;
17662;SDS011;8950;56.892;15.090;2023-01-24T11:30:54;2.47;;;2.28;;
17662;SDS011;8950;56.892;15.090;2023-01-24T11:33:30;2.55;;;2.35;;
17662;SDS011;8950;56.892;15.090;2023-01-24T11:36:00;3.13;;;2.38;;
17662;SDS011;8950;56.892;15.090;2023-01-24T11:38:29;2.60;;;2.40;;
17662;SDS011;8950;56.892;15.090;2023-01-24T11:41:02;3.30;;;3.00;;
17662;SDS011;8950;56.892;15.090;2023-01-24T11:43:35;2.50;;;2.30;;
17662;SDS011;8950;56.892;15.090;2023-01-24T11:46:11;3.10;;;2.65;;
17662;SDS011;8950;56.892;15.090;2023-01-24T11:48:41;2.78;;;2.58;;
17662;SDS011;8950;56.892;15.090;2023-01-24T11:51:12;3.00;;;2.80;;
17662;SDS011;8950;56.892;15.090;2023-01-24T11:53:48;3.25;;;2.78;;
17662;SDS011;8950;56.892;15.090;2023-01-24T11:56:19;2.72;;;2.50;;
17662;SDS011;8950;56.892;15.090;2023-01-24T11:58:54;3.25;;;2.60;;
17662;SDS011;8950;56.892;15.090;2023-01-24T12:01:26;2.85;;;2.63;;
17662;SDS011;8950;56.892;15.090;2023-01-24T12:06:44;2.95;;;2.72;;
17662;SDS011;8950;56.892;15.090;2023-01-24T12:09:17;3.20;;;2.95;;
17662;SDS011;8950;56.892;15.090;2023-01-24T12:11:47;2.53;;;2.33;;
17662;SDS011;8950;56.892;15.090;2023-01-24T12:14:26;3.20;;;2.88;;
17662;SDS011;8950;56.892;15.090;2023-01-24T12:16:58;2.90;;;2.70;;
17662;SDS011;8950;56.892;15.090;2023-01-24T12:19:33;3.28;;;2.45;;
17662;SDS011;8950;56.892;15.090;2023-01-24T12:22:05;3.33;;;3.03;;
17662;SDS011;8950;56.892;15.090;2023-01-24T12:24:37;3.15;;;2.80;;
17662;SDS011;8950;56.892;15.090;2023-01-24T12:27:09;2.95;;;2.65;;
17662;SDS011;8950;56.892;15.090;2023-01-24T12:29:41;3.20;;;2.90;;
17662;SDS011;8950;56.892;15.090;2023-01-24T12:32:11;2.85;;;2.55;;
17662;SDS011;8950;56.892;15.090;2023-01-24T12:34:42;3.85;;;2.78;;
17662;SDS011;8950;56.892;15.090;2023-01-24T12:37:11;3.35;;;2.88;;
17662;SDS011;8950;56.892;15.090;2023-01-24T12:39:41;3.05;;;2.70;;
17662;SDS011;8950;56.892;15.090;2023-01-24T12:42:11;3.33;;;3.00;;
17662;SDS011;8950;56.892;15.090;2023-01-24T12:44:41;3.17;;;2.80;;
17662;SDS011;8950;56.892;15.090;2023-01-24T12:47:22;3.10;;;2.85;;
17662;SDS011;8950;56.892;15.090;2023-01-24T12:49:55;2.80;;;2.60;;
17662;SDS011;8950;56.892;15.090;2023-01-24T12:52:27;3.08;;;2.78;;
17662;SDS011;8950;56.892;15.090;2023-01-24T12:54:58;3.05;;;2.85;;
17662;SDS011;8950;56.892;15.090;2023-01-24T12:57:27;3.20;;;2.90;;
17662;SDS011;8950;56.892;15.090;2023-01-24T12:59:56;3.35;;;3.05;;
17662;SDS011;8950;56.892;15.090;2023-01-24T13:02:37;3.47;;;2.90;;
17662;SDS011;8950;56.892;15.090;2023-01-24T13:05:17;3.30;;;3.10;;
17662;SDS011;8950;56.892;15.090;2023-01-24T13:07:48;4.32;;;3.33;;
17662;SDS011;8950;56.892;15.090;2023-01-24T13:10:20;3.08;;;2.78;;
17662;SDS011;8950;56.892;15.090;2023-01-24T13:12:47;3.70;;;3.40;;
17662;SDS011;8950;56.892;15.090;2023-01-24T13:15:16;3.47;;;3.17;;
17662;SDS011;8950;56.892;15.090;2023-01-24T13:20:37;3.53;;;2.90;;
17662;SDS011;8950;56.892;15.090;2023-01-24T13:23:13;2.90;;;2.70;;
17662;SDS011;8950;56.892;15.090;2023-01-24T13:28:39;3.75;;;3.35;;
17662;SDS011;8950;56.892;15.090;2023-01-24T13:31:11;3.92;;;3.45;;
17662;SDS011;8950;56.892;15.090;2023-01-24T13:33:43;3.05;;;2.85;;
17662;SDS011;8950;56.892;15.090;2023-01-24T13:36:14;3.72;;;3.47;;
17662;SDS011;8950;56.892;15.090;2023-01-24T13:38:42;3.47;;;3.17;;
17662;SDS011;8950;56.892;15.090;2023-01-24T13:41:13;3.63;;;3.15;;
17662;SDS011;8950;56.892;15.090;2023-01-24T13:43:57;4.03;;;3.72;;
17662;SDS011;8950;56.892;15.090;2023-01-24T13:49:15;3.97;;;3.47;;
17662;SDS011;8950;56.892;15.090;2023-01-24T13:51:43;3.80;;;3.40;;
17662;SDS011;8950;56.892;15.090;2023-01-24T13:54:35;3.65;;;3.35;;
17662;SDS011;8950;56.892;15.090;2023-01-24T14:02:40;4.30;;;3.90;;
17662;SDS011;8950;56.892;15.090;2023-01-24T14:07:48;3.80;;;3.50;;
17662;SDS011;8950;56.892;15.090;2023-01-24T14:10:15;3.83;;;3.53;;
17662;SDS011;8950;56.892;15.090;2023-01-24T14:12:41;3.92;;;3.63;;
17662;SDS011;8950;56.892;15.090;2023-01-24T14:15:24;4.13;;;3.83;;
17662;SDS011;8950;56.892;15.090;2023-01-24T14:17:52;4.18;;;3.63;;
17662;SDS011;8950;56.892;15.090;2023-01-24T14:20:20;3.85;;;3.55;;
17662;SDS011;8950;56.892;15.090;2023-01-24T14:22:47;4.43;;;4.03;;
17662;SDS011;8950;56.892;15.090;2023-01-24T14:28:02;4.53;;;4.13;;
17662;SDS011;8950;56.892;15.090;2023-01-24T14:30:32;4.40;;;4.00;;
17662;SDS011;8950;56.892;15.090;2023-01-24T14:33:03;3.85;;;3.55;;
17662;SDS011;8950;56.892;15.090;2023-01-24T14:35:31;4.50;;;4.10;;
17662;SDS011;8950;56.892;15.090;2023-01-24T14:38:10;4.32;;;3.97;;
17662;SDS011;8950;56.892;15.090;2023-01-24T14:40:38;4.10;;;3.80;;
17662;SDS011;8950;56.892;15.090;2023-01-24T14:43:04;4.53;;;3.92;;
17662;SDS011;8950;56.892;15.090;2023-01-24T14:45:32;4.82;;;4.35;;
17662;SDS011;8950;56.892;15.090;2023-01-24T14:47:59;4.35;;;3.95;;
17662;SDS011;8950;56.892;15.090;2023-01-24T14:50:29;5.38;;;4.15;;
17662;SDS011;8950;56.892;15.090;2023-01-24T14:52:56;4.55;;;4.15;;
17662;SDS011;8950;56.892;15.090;2023-01-24T14:55:36;5.68;;;4.32;;
17662;SDS011;8950;56.892;15.090;2023-01-24T14:58:14;4.72;;;4.32;;
17662;SDS011;8950;56.892;15.090;2023-01-24T15:00:40;4.43;;;4.03;;
17662;SDS011;8950;56.892;15.090;2023-01-24T15:03:10;4.32;;;4.03;;
17662;SDS011;8950;56.892;15.090;2023-01-24T15:05:42;4.70;;;4.00;;
17662;SDS011;8950;56.892;15.090;2023-01-24T15:08:14;4.57;;;4.20;;
17662;SDS011;8950;56.892;15.090;2023-01-24T15:10:41;4.00;;;3.70;;
17662;SDS011;8950;56.892;15.090;2023-01-24T15:13:09;5.45;;;4.20;;
17662;SDS011;8950;56.892;15.090;2023-01-24T15:15:36;4.65;;;4.25;;
17662;SDS011;8950;56.892;15.090;2023-01-24T15:18:06;4.25;;;3.95;;
17662;SDS011;8950;56.892;15.090;2023-01-24T15:20:34;3.92;;;3.63;;
17662;SDS011;8950;56.892;15.090;2023-01-24T15:23:03;4.70;;;4.30;;
17662;SDS011;8950;56.892;15.090;2023-01-24T15:25:34;4.50;;;4.10;;